sensor_id;sensor_type;location;lat;lon;timestamp;P1;durP1;ratioP1;P2;durP2;ratioP2
18322;SDS011;9287;49.456;11.064;2024-03-02T00:00:40;43.67;;;27.83;;
18322;SDS011;9287;49.456;11.064;2024-03-02T00:03:08;45.13;;;27.83;;
18322;SDS011;9287;49.456;11.064;2024-03-02T00:05:36;43.33;;;27.30;;
18322;SDS011;9287;49.456;11.064;2024-03-02T00:08:06;44.10;;;27.43;;
18322;SDS011;9287;49.456;11.064;2024-03-02T00:10:36;42.07;;;26.93;;
18322;SDS011;9287;49.456;11.064;2024-03-02T00:13:06;49.30;;;28.00;;
18322;SDS011;9287;49.456;11.064;2024-03-02T00:15:45;50.37;;;29.17;;
18322;SDS011;9287;49.456;11.064;2024-03-02T00:18:16;48.30;;;29.87;;
18322;SDS011;9287;49.456;11.064;2024-03-02T00:20:47;45.70;;;28.83;;
18322;SDS011;9287;49.456;11.064;2024-03-02T00:23:16;46.70;;;28.43;;
18322;SDS011;9287;49.456;11.064;2024-03-02T00:25:46;45.43;;;28.60;;
18322;SDS011;9287;49.456;11.064;2024-03-02T00:28:16;43.13;;;28.47;;
18322;SDS011;9287;49.456;11.064;2024-03-02T00:30:56;45.27;;;28.27;;
18322;SDS011;9287;49.456;11.064;2024-03-02T00:33:26;42.33;;;27.13;;
18322;SDS011;9287;49.456;11.064;2024-03-02T00:35:55;42.63;;;27.83;;
18322;SDS011;9287;49.456;11.064;2024-03-02T00:38:25;40.00;;;26.87;;
18322;SDS011;9287;49.456;11.064;2024-03-02T00:40:53;39.47;;;25.47;;
18322;SDS011;9287;49.456;11.064;2024-03-02T00:43:34;44.83;;;28.73;;
18322;SDS011;9287;49.456;11.064;2024-03-02T00:46:17;41.63;;;25.83;;
18322;SDS011;9287;49.456;11.064;2024-03-02T00:48:53;42.70;;;27.90;;
18322;SDS011;9287;49.456;11.064;2024-03-02T00:51:23;43.57;;;27.73;;
18322;SDS011;9287;49.456;11.064;2024-03-02T00:53:55;44.33;;;27.20;;
18322;SDS011;9287;49.456;11.064;2024-03-02T00:56:23;42.60;;;27.23;;
18322;SDS011;9287;49.456;11.064;2024-03-02T00:58:52;46.17;;;28.43;;
18322;SDS011;9287;49.456;11.064;2024-03-02T01:01:20;45.77;;;27.67;;
18322;SDS011;9287;49.456;11.064;2024-03-02T01:03:49;45.00;;;28.30;;
18322;SDS011;9287;49.456;11.064;2024-03-02T01:06:17;44.23;;;27.87;;
18322;SDS011;9287;49.456;11.064;2024-03-02T01:08:45;42.10;;;27.90;;
18322;SDS011;9287;49.456;11.064;2024-03-02T01:11:18;43.63;;;28.67;;
18322;SDS011;9287;49.456;11.064;2024-03-02T01:13:49;42.03;;;28.20;;
18322;SDS011;9287;49.456;11.064;2024-03-02T01:16:18;48.80;;;29.63;;
18322;SDS011;9287;49.456;11.064;2024-03-02T01:18:46;44.73;;;28.40;;
18322;SDS011;9287;49.456;11.064;2024-03-02T01:21:14;43.10;;;28.33;;
18322;SDS011;9287;49.456;11.064;2024-03-02T01:23:42;42.27;;;27.70;;
18322;SDS011;9287;49.456;11.064;2024-03-02T01:26:10;41.63;;;28.73;;
18322;SDS011;9287;49.456;11.064;2024-03-02T01:28:39;47.10;;;27.93;;
18322;SDS011;9287;49.456;11.064;2024-03-02T01:31:07;43.00;;;25.87;;
18322;SDS011;9287;49.456;11.064;2024-03-02T01:33:35;43.10;;;26.43;;
18322;SDS011;9287;49.456;11.064;2024-03-02T01:36:03;44.60;;;27.83;;
18322;SDS011;9287;49.456;11.064;2024-03-02T01:38:31;43.40;;;26.83;;
18322;SDS011;9287;49.456;11.064;2024-03-02T01:41:00;44.23;;;28.07;;
18322;SDS011;9287;49.456;11.064;2024-03-02T01:43:29;43.53;;;27.43;;
18322;SDS011;9287;49.456;11.064;2024-03-02T01:45:58;40.20;;;25.87;;
18322;SDS011;9287;49.456;11.064;2024-03-02T01:48:26;44.93;;;27.60;;
18322;SDS011;9287;49.456;11.064;2024-03-02T01:50:53;46.63;;;28.23;;
18322;SDS011;9287;49.456;11.064;2024-03-02T01:53:21;42.07;;;27.77;;
18322;SDS011;9287;49.456;11.064;2024-03-02T01:55:49;44.03;;;27.03;;
18322;SDS011;9287;49.456;11.064;2024-03-02T01:58:17;47.23;;;28.10;;
18322;SDS011;9287;49.456;11.064;2024-03-02T02:00:52;42.50;;;27.10;;
18322;SDS011;9287;49.456;11.064;2024-03-02T02:03:21;47.40;;;28.17;;
18322;SDS011;9287;49.456;11.064;2024-03-02T02:05:49;46.30;;;27.83;;
18322;SDS011;9287;49.456;11.064;2024-03-02T02:08:17;45.50;;;27.93;;
18322;SDS011;9287;49.456;11.064;2024-03-02T02:10:45;45.90;;;28.40;;
18322;SDS011;9287;49.456;11.064;2024-03-02T02:13:13;41.77;;;27.47;;
18322;SDS011;9287;49.456;11.064;2024-03-02T02:15:41;44.30;;;29.20;;
18322;SDS011;9287;49.456;11.064;2024-03-02T02:18:08;46.23;;;28.73;;
18322;SDS011;9287;49.456;11.064;2024-03-02T02:20:37;42.20;;;27.13;;
18322;SDS011;9287;49.456;11.064;2024-03-02T02:23:09;47.37;;;29.40;;
18322;SDS011;9287;49.456;11.064;2024-03-02T02:25:37;42.73;;;28.20;;
18322;SDS011;9287;49.456;11.064;2024-03-02T02:28:05;42.10;;;27.40;;
18322;SDS011;9287;49.456;11.064;2024-03-02T02:30:32;43.53;;;27.73;;
18322;SDS011;9287;49.456;11.064;2024-03-02T02:33:01;44.73;;;28.13;;
18322;SDS011;9287;49.456;11.064;2024-03-02T02:35:29;42.80;;;27.73;;
18322;SDS011;9287;49.456;11.064;2024-03-02T02:37:56;42.97;;;26.87;;
18322;SDS011;9287;49.456;11.064;2024-03-02T02:40:27;42.60;;;27.50;;
18322;SDS011;9287;49.456;11.064;2024-03-02T02:42:55;42.70;;;27.23;;
18322;SDS011;9287;49.456;11.064;2024-03-02T02:45:23;43.13;;;26.60;;
18322;SDS011;9287;49.456;11.064;2024-03-02T02:47:51;43.10;;;27.13;;
18322;SDS011;9287;49.456;11.064;2024-03-02T02:50:19;42.10;;;27.27;;
18322;SDS011;9287;49.456;11.064;2024-03-02T02:52:47;42.07;;;26.50;;
18322;SDS011;9287;49.456;11.064;2024-03-02T02:55:15;43.03;;;26.93;;
18322;SDS011;9287;49.456;11.064;2024-03-02T02:57:44;40.20;;;26.83;;
18322;SDS011;9287;49.456;11.064;2024-03-02T03:00:13;41.63;;;26.97;;
18322;SDS011;9287;49.456;11.064;2024-03-02T03:02:44;40.80;;;27.20;;
18322;SDS011;9287;49.456;11.064;2024-03-02T03:05:16;41.97;;;26.43;;
18322;SDS011;9287;49.456;11.064;2024-03-02T03:07:43;42.43;;;26.47;;
18322;SDS011;9287;49.456;11.064;2024-03-02T03:10:12;39.60;;;25.20;;
18322;SDS011;9287;49.456;11.064;2024-03-02T03:12:41;36.10;;;24.43;;
18322;SDS011;9287;49.456;11.064;2024-03-02T03:15:12;34.83;;;23.27;;
18322;SDS011;9287;49.456;11.064;2024-03-02T03:17:40;34.27;;;23.13;;
18322;SDS011;9287;49.456;11.064;2024-03-02T03:20:08;33.53;;;22.90;;
18322;SDS011;9287;49.456;11.064;2024-03-02T03:22:37;35.33;;;23.87;;
18322;SDS011;9287;49.456;11.064;2024-03-02T03:25:05;35.30;;;23.33;;
18322;SDS011;9287;49.456;11.064;2024-03-02T03:27:34;37.20;;;23.73;;
18322;SDS011;9287;49.456;11.064;2024-03-02T03:30:03;33.13;;;22.70;;
18322;SDS011;9287;49.456;11.064;2024-03-02T03:32:34;33.17;;;22.90;;
18322;SDS011;9287;49.456;11.064;2024-03-02T03:35:02;35.93;;;24.23;;
18322;SDS011;9287;49.456;11.064;2024-03-02T03:37:30;35.23;;;23.17;;
18322;SDS011;9287;49.456;11.064;2024-03-02T03:40:00;34.90;;;21.93;;
18322;SDS011;9287;49.456;11.064;2024-03-02T03:42:29;33.37;;;22.17;;
18322;SDS011;9287;49.456;11.064;2024-03-02T03:44:56;34.10;;;22.20;;
18322;SDS011;9287;49.456;11.064;2024-03-02T03:47:24;33.67;;;21.73;;
18322;SDS011;9287;49.456;11.064;2024-03-02T03:49:54;35.13;;;20.97;;
18322;SDS011;9287;49.456;11.064;2024-03-02T03:52:21;32.60;;;21.23;;
18322;SDS011;9287;49.456;11.064;2024-03-02T03:54:49;33.33;;;22.13;;
18322;SDS011;9287;49.456;11.064;2024-03-02T03:57:17;27.43;;;18.80;;
18322;SDS011;9287;49.456;11.064;2024-03-02T03:59:45;25.40;;;17.87;;
18322;SDS011;9287;49.456;11.064;2024-03-02T04:02:13;28.00;;;19.00;;
18322;SDS011;9287;49.456;11.064;2024-03-02T04:04:41;27.20;;;17.97;;
18322;SDS011;9287;49.456;11.064;2024-03-02T04:07:11;24.50;;;16.83;;
18322;SDS011;9287;49.456;11.064;2024-03-02T04:09:39;26.27;;;17.17;;
18322;SDS011;9287;49.456;11.064;2024-03-02T04:12:07;24.93;;;16.23;;
18322;SDS011;9287;49.456;11.064;2024-03-02T04:14:35;23.13;;;16.93;;
18322;SDS011;9287;49.456;11.064;2024-03-02T04:17:04;25.57;;;17.43;;
18322;SDS011;9287;49.456;11.064;2024-03-02T04:19:32;23.93;;;16.47;;
18322;SDS011;9287;49.456;11.064;2024-03-02T04:22:00;23.50;;;16.03;;
18322;SDS011;9287;49.456;11.064;2024-03-02T04:24:42;20.77;;;15.13;;
18322;SDS011;9287;49.456;11.064;2024-03-02T04:27:09;21.90;;;16.63;;
18322;SDS011;9287;49.456;11.064;2024-03-02T04:29:37;23.37;;;15.30;;
18322;SDS011;9287;49.456;11.064;2024-03-02T04:32:05;24.73;;;16.10;;
18322;SDS011;9287;49.456;11.064;2024-03-02T04:34:35;24.40;;;16.47;;
18322;SDS011;9287;49.456;11.064;2024-03-02T04:37:02;24.47;;;16.60;;
18322;SDS011;9287;49.456;11.064;2024-03-02T04:39:30;25.63;;;17.20;;
18322;SDS011;9287;49.456;11.064;2024-03-02T04:42:00;25.03;;;16.67;;
18322;SDS011;9287;49.456;11.064;2024-03-02T04:44:29;24.57;;;17.73;;
18322;SDS011;9287;49.456;11.064;2024-03-02T04:46:56;26.10;;;17.63;;
18322;SDS011;9287;49.456;11.064;2024-03-02T04:49:24;24.10;;;17.13;;
18322;SDS011;9287;49.456;11.064;2024-03-02T04:51:52;27.63;;;17.90;;
18322;SDS011;9287;49.456;11.064;2024-03-02T04:54:20;26.47;;;17.67;;
18322;SDS011;9287;49.456;11.064;2024-03-02T04:56:48;27.90;;;17.57;;
18322;SDS011;9287;49.456;11.064;2024-03-02T04:59:18;25.63;;;17.70;;
18322;SDS011;9287;49.456;11.064;2024-03-02T05:01:47;28.90;;;19.10;;
18322;SDS011;9287;49.456;11.064;2024-03-02T05:04:14;26.43;;;18.07;;
18322;SDS011;9287;49.456;11.064;2024-03-02T05:06:42;29.67;;;18.90;;
18322;SDS011;9287;49.456;11.064;2024-03-02T05:09:10;28.40;;;19.03;;
18322;SDS011;9287;49.456;11.064;2024-03-02T05:11:38;30.90;;;19.43;;
18322;SDS011;9287;49.456;11.064;2024-03-02T05:14:39;29.03;;;19.07;;
18322;SDS011;9287;49.456;11.064;2024-03-02T05:17:07;30.00;;;18.87;;
18322;SDS011;9287;49.456;11.064;2024-03-02T05:19:35;29.00;;;18.63;;
18322;SDS011;9287;49.456;11.064;2024-03-02T05:22:03;31.27;;;19.33;;
18322;SDS011;9287;49.456;11.064;2024-03-02T05:24:32;27.93;;;18.03;;
18322;SDS011;9287;49.456;11.064;2024-03-02T05:27:00;28.10;;;17.17;;
18322;SDS011;9287;49.456;11.064;2024-03-02T05:29:28;28.70;;;18.33;;
18322;SDS011;9287;49.456;11.064;2024-03-02T05:31:57;26.73;;;17.23;;
18322;SDS011;9287;49.456;11.064;2024-03-02T05:34:25;28.77;;;19.23;;
18322;SDS011;9287;49.456;11.064;2024-03-02T05:36:52;26.63;;;17.60;;
18322;SDS011;9287;49.456;11.064;2024-03-02T05:39:20;28.77;;;19.03;;
18322;SDS011;9287;49.456;11.064;2024-03-02T05:41:48;28.30;;;18.07;;
18322;SDS011;9287;49.456;11.064;2024-03-02T05:44:16;27.37;;;17.70;;
18322;SDS011;9287;49.456;11.064;2024-03-02T05:46:44;33.93;;;19.37;;
18322;SDS011;9287;49.456;11.064;2024-03-02T05:49:13;28.50;;;18.83;;
18322;SDS011;9287;49.456;11.064;2024-03-02T05:51:41;29.33;;;18.77;;
18322;SDS011;9287;49.456;11.064;2024-03-02T05:54:09;27.53;;;18.07;;
18322;SDS011;9287;49.456;11.064;2024-03-02T05:56:37;30.13;;;18.57;;
18322;SDS011;9287;49.456;11.064;2024-03-02T05:59:04;27.60;;;18.47;;
18322;SDS011;9287;49.456;11.064;2024-03-02T06:01:39;30.27;;;18.73;;
18322;SDS011;9287;49.456;11.064;2024-03-02T06:04:07;27.90;;;18.57;;
18322;SDS011;9287;49.456;11.064;2024-03-02T06:06:36;27.13;;;18.17;;
18322;SDS011;9287;49.456;11.064;2024-03-02T06:09:04;26.03;;;17.03;;
18322;SDS011;9287;49.456;11.064;2024-03-02T06:11:34;28.20;;;18.30;;
18322;SDS011;9287;49.456;11.064;2024-03-02T06:14:02;27.57;;;17.63;;
18322;SDS011;9287;49.456;11.064;2024-03-02T06:16:30;29.13;;;18.37;;
18322;SDS011;9287;49.456;11.064;2024-03-02T06:18:58;24.87;;;17.53;;
18322;SDS011;9287;49.456;11.064;2024-03-02T06:21:26;29.10;;;18.17;;
18322;SDS011;9287;49.456;11.064;2024-03-02T06:23:56;27.53;;;18.27;;
18322;SDS011;9287;49.456;11.064;2024-03-02T06:26:24;27.80;;;17.57;;
18322;SDS011;9287;49.456;11.064;2024-03-02T06:28:53;27.93;;;16.73;;
18322;SDS011;9287;49.456;11.064;2024-03-02T06:31:21;27.30;;;18.43;;
18322;SDS011;9287;49.456;11.064;2024-03-02T06:33:49;26.00;;;17.97;;
18322;SDS011;9287;49.456;11.064;2024-03-02T06:36:18;27.90;;;18.13;;
18322;SDS011;9287;49.456;11.064;2024-03-02T06:38:46;28.97;;;18.67;;
18322;SDS011;9287;49.456;11.064;2024-03-02T06:41:16;28.93;;;19.53;;
18322;SDS011;9287;49.456;11.064;2024-03-02T06:43:43;26.30;;;18.20;;
18322;SDS011;9287;49.456;11.064;2024-03-02T06:46:11;28.73;;;18.73;;
18322;SDS011;9287;49.456;11.064;2024-03-02T06:48:41;30.93;;;18.63;;
18322;SDS011;9287;49.456;11.064;2024-03-02T06:51:09;31.33;;;19.93;;
18322;SDS011;9287;49.456;11.064;2024-03-02T06:53:37;26.17;;;18.37;;
18322;SDS011;9287;49.456;11.064;2024-03-02T06:56:06;27.90;;;19.10;;
18322;SDS011;9287;49.456;11.064;2024-03-02T06:58:36;31.73;;;18.83;;
18322;SDS011;9287;49.456;11.064;2024-03-02T07:01:03;26.83;;;18.67;;
18322;SDS011;9287;49.456;11.064;2024-03-02T07:03:31;27.47;;;18.50;;
18322;SDS011;9287;49.456;11.064;2024-03-02T07:06:00;26.97;;;18.33;;
18322;SDS011;9287;49.456;11.064;2024-03-02T07:08:27;27.77;;;18.13;;
18322;SDS011;9287;49.456;11.064;2024-03-02T07:10:55;24.63;;;17.50;;
18322;SDS011;9287;49.456;11.064;2024-03-02T07:13:23;26.60;;;17.23;;
18322;SDS011;9287;49.456;11.064;2024-03-02T07:15:52;24.80;;;17.00;;
18322;SDS011;9287;49.456;11.064;2024-03-02T07:18:49;27.47;;;18.87;;
18322;SDS011;9287;49.456;11.064;2024-03-02T07:21:18;27.63;;;17.97;;
18322;SDS011;9287;49.456;11.064;2024-03-02T07:23:48;27.40;;;16.90;;
18322;SDS011;9287;49.456;11.064;2024-03-02T07:26:16;28.10;;;17.63;;
18322;SDS011;9287;49.456;11.064;2024-03-02T07:28:48;25.83;;;17.77;;
18322;SDS011;9287;49.456;11.064;2024-03-02T07:31:18;24.93;;;17.57;;
18322;SDS011;9287;49.456;11.064;2024-03-02T07:33:45;24.13;;;16.43;;
18322;SDS011;9287;49.456;11.064;2024-03-02T07:36:13;24.63;;;16.63;;
18322;SDS011;9287;49.456;11.064;2024-03-02T07:38:42;23.17;;;16.23;;
18322;SDS011;9287;49.456;11.064;2024-03-02T07:41:11;25.70;;;15.63;;
18322;SDS011;9287;49.456;11.064;2024-03-02T07:43:39;23.80;;;15.43;;
18322;SDS011;9287;49.456;11.064;2024-03-02T07:46:07;23.50;;;15.80;;
18322;SDS011;9287;49.456;11.064;2024-03-02T07:48:36;23.03;;;15.67;;
18322;SDS011;9287;49.456;11.064;2024-03-02T07:51:05;24.37;;;16.10;;
18322;SDS011;9287;49.456;11.064;2024-03-02T07:53:33;23.60;;;16.20;;
18322;SDS011;9287;49.456;11.064;2024-03-02T07:56:00;24.57;;;16.33;;
18322;SDS011;9287;49.456;11.064;2024-03-02T07:58:29;24.13;;;16.40;;
18322;SDS011;9287;49.456;11.064;2024-03-02T08:00:58;19.47;;;14.77;;
18322;SDS011;9287;49.456;11.064;2024-03-02T08:03:28;21.43;;;15.37;;
18322;SDS011;9287;49.456;11.064;2024-03-02T08:05:57;22.10;;;15.37;;
18322;SDS011;9287;49.456;11.064;2024-03-02T08:08:25;22.80;;;15.63;;
18322;SDS011;9287;49.456;11.064;2024-03-02T08:10:53;21.57;;;15.30;;
18322;SDS011;9287;49.456;11.064;2024-03-02T08:13:23;24.63;;;15.83;;
18322;SDS011;9287;49.456;11.064;2024-03-02T08:15:51;21.13;;;14.67;;
18322;SDS011;9287;49.456;11.064;2024-03-02T08:18:19;20.53;;;13.90;;
18322;SDS011;9287;49.456;11.064;2024-03-02T08:20:47;21.00;;;14.67;;
18322;SDS011;9287;49.456;11.064;2024-03-02T08:23:16;19.70;;;14.30;;
18322;SDS011;9287;49.456;11.064;2024-03-02T08:25:44;19.90;;;13.20;;
18322;SDS011;9287;49.456;11.064;2024-03-02T08:28:13;20.80;;;14.93;;
18322;SDS011;9287;49.456;11.064;2024-03-02T08:30:41;18.73;;;12.97;;
18322;SDS011;9287;49.456;11.064;2024-03-02T08:33:09;21.17;;;13.23;;
18322;SDS011;9287;49.456;11.064;2024-03-02T08:35:37;18.23;;;13.17;;
18322;SDS011;9287;49.456;11.064;2024-03-02T08:38:04;17.83;;;12.87;;
18322;SDS011;9287;49.456;11.064;2024-03-02T08:40:34;16.37;;;12.07;;
18322;SDS011;9287;49.456;11.064;2024-03-02T08:43:02;17.77;;;13.20;;
18322;SDS011;9287;49.456;11.064;2024-03-02T08:45:30;16.90;;;12.47;;
18322;SDS011;9287;49.456;11.064;2024-03-02T08:47:58;16.30;;;12.40;;
18322;SDS011;9287;49.456;11.064;2024-03-02T08:50:26;17.33;;;12.40;;
18322;SDS011;9287;49.456;11.064;2024-03-02T08:52:54;15.47;;;11.63;;
18322;SDS011;9287;49.456;11.064;2024-03-02T08:55:22;15.80;;;11.43;;
18322;SDS011;9287;49.456;11.064;2024-03-02T08:57:51;16.20;;;12.17;;
18322;SDS011;9287;49.456;11.064;2024-03-02T09:00:19;15.90;;;11.63;;
18322;SDS011;9287;49.456;11.064;2024-03-02T09:02:47;13.90;;;10.47;;
18322;SDS011;9287;49.456;11.064;2024-03-02T09:05:15;11.77;;;9.87;;
18322;SDS011;9287;49.456;11.064;2024-03-02T09:07:43;12.27;;;10.13;;
18322;SDS011;9287;49.456;11.064;2024-03-02T09:10:11;12.40;;;9.87;;
18322;SDS011;9287;49.456;11.064;2024-03-02T09:12:39;10.57;;;8.57;;
18322;SDS011;9287;49.456;11.064;2024-03-02T09:15:09;12.33;;;9.70;;
18322;SDS011;9287;49.456;11.064;2024-03-02T09:17:37;13.20;;;9.53;;
18322;SDS011;9287;49.456;11.064;2024-03-02T09:20:05;10.63;;;8.67;;
18322;SDS011;9287;49.456;11.064;2024-03-02T09:22:33;11.53;;;9.60;;
18322;SDS011;9287;49.456;11.064;2024-03-02T09:25:01;9.97;;;8.60;;
18322;SDS011;9287;49.456;11.064;2024-03-02T09:27:29;10.87;;;8.40;;
18322;SDS011;9287;49.456;11.064;2024-03-02T09:29:57;9.27;;;7.77;;
18322;SDS011;9287;49.456;11.064;2024-03-02T09:32:29;9.67;;;7.97;;
18322;SDS011;9287;49.456;11.064;2024-03-02T09:34:59;11.13;;;8.03;;
18322;SDS011;9287;49.456;11.064;2024-03-02T09:37:27;10.50;;;7.63;;
18322;SDS011;9287;49.456;11.064;2024-03-02T09:39:56;8.47;;;7.30;;
18322;SDS011;9287;49.456;11.064;2024-03-02T09:42:24;10.50;;;8.63;;
18322;SDS011;9287;49.456;11.064;2024-03-02T09:44:53;10.43;;;8.63;;
18322;SDS011;9287;49.456;11.064;2024-03-02T09:47:21;9.73;;;7.77;;
18322;SDS011;9287;49.456;11.064;2024-03-02T09:49:50;9.27;;;7.80;;
18322;SDS011;9287;49.456;11.064;2024-03-02T09:52:18;8.80;;;7.53;;
18322;SDS011;9287;49.456;11.064;2024-03-02T09:54:47;9.33;;;7.33;;
18322;SDS011;9287;49.456;11.064;2024-03-02T09:57:15;10.40;;;7.50;;
18322;SDS011;9287;49.456;11.064;2024-03-02T09:59:43;8.43;;;7.53;;
18322;SDS011;9287;49.456;11.064;2024-03-02T10:02:11;8.67;;;7.47;;
18322;SDS011;9287;49.456;11.064;2024-03-02T10:04:39;9.47;;;7.90;;
18322;SDS011;9287;49.456;11.064;2024-03-02T10:07:12;7.10;;;6.40;;
18322;SDS011;9287;49.456;11.064;2024-03-02T10:09:41;9.60;;;7.60;;
18322;SDS011;9287;49.456;11.064;2024-03-02T10:12:11;9.77;;;8.00;;
18322;SDS011;9287;49.456;11.064;2024-03-02T10:14:40;8.53;;;7.13;;
18322;SDS011;9287;49.456;11.064;2024-03-02T10:17:08;9.47;;;7.53;;
18322;SDS011;9287;49.456;11.064;2024-03-02T10:19:38;8.50;;;7.20;;
18322;SDS011;9287;49.456;11.064;2024-03-02T10:22:10;8.07;;;7.27;;
18322;SDS011;9287;49.456;11.064;2024-03-02T10:24:40;8.03;;;7.23;;
18322;SDS011;9287;49.456;11.064;2024-03-02T10:27:14;8.67;;;6.60;;
18322;SDS011;9287;49.456;11.064;2024-03-02T10:29:45;8.47;;;6.30;;
18322;SDS011;9287;49.456;11.064;2024-03-02T10:32:14;6.70;;;5.93;;
18322;SDS011;9287;49.456;11.064;2024-03-02T10:34:44;8.93;;;6.60;;
18322;SDS011;9287;49.456;11.064;2024-03-02T10:37:15;8.30;;;6.90;;
18322;SDS011;9287;49.456;11.064;2024-03-02T10:39:46;8.70;;;7.60;;
18322;SDS011;9287;49.456;11.064;2024-03-02T10:42:14;9.90;;;7.00;;
18322;SDS011;9287;49.456;11.064;2024-03-02T10:44:43;8.17;;;7.37;;
18322;SDS011;9287;49.456;11.064;2024-03-02T10:47:13;11.40;;;8.90;;
18322;SDS011;9287;49.456;11.064;2024-03-02T10:49:43;9.30;;;8.33;;
18322;SDS011;9287;49.456;11.064;2024-03-02T10:52:15;10.50;;;8.70;;
18322;SDS011;9287;49.456;11.064;2024-03-02T10:54:43;10.77;;;9.33;;
18322;SDS011;9287;49.456;11.064;2024-03-02T10:57:11;10.27;;;9.17;;
18322;SDS011;9287;49.456;11.064;2024-03-02T10:59:46;12.10;;;9.40;;
18322;SDS011;9287;49.456;11.064;2024-03-02T11:02:20;11.43;;;9.67;;
18322;SDS011;9287;49.456;11.064;2024-03-02T11:04:49;11.23;;;9.23;;
18322;SDS011;9287;49.456;11.064;2024-03-02T11:07:23;13.47;;;9.63;;
18322;SDS011;9287;49.456;11.064;2024-03-02T11:09:54;10.97;;;8.47;;
18322;SDS011;9287;49.456;11.064;2024-03-02T11:12:36;10.80;;;9.50;;
18322;SDS011;9287;49.456;11.064;2024-03-02T11:15:08;10.33;;;9.20;;
18322;SDS011;9287;49.456;11.064;2024-03-02T11:17:38;13.40;;;10.10;;
18322;SDS011;9287;49.456;11.064;2024-03-02T11:20:08;11.60;;;10.40;;
18322;SDS011;9287;49.456;11.064;2024-03-02T11:22:38;12.97;;;11.60;;
18322;SDS011;9287;49.456;11.064;2024-03-02T11:25:07;14.53;;;11.90;;
18322;SDS011;9287;49.456;11.064;2024-03-02T11:27:59;14.67;;;12.47;;
18322;SDS011;9287;49.456;11.064;2024-03-02T11:30:50;14.17;;;11.80;;
18322;SDS011;9287;49.456;11.064;2024-03-02T11:33:23;15.07;;;12.70;;
18322;SDS011;9287;49.456;11.064;2024-03-02T11:35:53;13.57;;;11.47;;
18322;SDS011;9287;49.456;11.064;2024-03-02T11:38:26;14.20;;;12.03;;
18322;SDS011;9287;49.456;11.064;2024-03-02T11:40:55;13.47;;;10.07;;
18322;SDS011;9287;49.456;11.064;2024-03-02T11:43:25;13.03;;;9.73;;
18322;SDS011;9287;49.456;11.064;2024-03-02T11:45:57;11.03;;;9.83;;
18322;SDS011;9287;49.456;11.064;2024-03-02T11:48:26;12.60;;;9.50;;
18322;SDS011;9287;49.456;11.064;2024-03-02T11:50:54;12.10;;;9.53;;
18322;SDS011;9287;49.456;11.064;2024-03-02T11:53:27;12.23;;;9.90;;
18322;SDS011;9287;49.456;11.064;2024-03-02T11:55:59;12.40;;;9.33;;
18322;SDS011;9287;49.456;11.064;2024-03-02T11:58:28;11.93;;;9.60;;
18322;SDS011;9287;49.456;11.064;2024-03-02T12:00:57;16.07;;;10.43;;
18322;SDS011;9287;49.456;11.064;2024-03-02T12:03:26;13.60;;;10.60;;
18322;SDS011;9287;49.456;11.064;2024-03-02T12:05:54;15.03;;;11.47;;
18322;SDS011;9287;49.456;11.064;2024-03-02T12:08:22;14.80;;;11.27;;
18322;SDS011;9287;49.456;11.064;2024-03-02T12:10:58;16.23;;;12.20;;
18322;SDS011;9287;49.456;11.064;2024-03-02T12:13:27;16.17;;;11.97;;
18322;SDS011;9287;49.456;11.064;2024-03-02T12:15:56;15.80;;;12.63;;
18322;SDS011;9287;49.456;11.064;2024-03-02T12:18:24;16.23;;;11.83;;
18322;SDS011;9287;49.456;11.064;2024-03-02T12:20:53;16.63;;;12.73;;
18322;SDS011;9287;49.456;11.064;2024-03-02T12:23:25;17.63;;;12.70;;
18322;SDS011;9287;49.456;11.064;2024-03-02T12:25:53;18.20;;;13.67;;
18322;SDS011;9287;49.456;11.064;2024-03-02T12:28:22;16.90;;;12.97;;
18322;SDS011;9287;49.456;11.064;2024-03-02T12:30:51;22.00;;;14.30;;
18322;SDS011;9287;49.456;11.064;2024-03-02T12:33:19;18.80;;;14.23;;
18322;SDS011;9287;49.456;11.064;2024-03-02T12:35:48;19.63;;;14.07;;
18322;SDS011;9287;49.456;11.064;2024-03-02T12:38:17;20.40;;;14.13;;
18322;SDS011;9287;49.456;11.064;2024-03-02T12:40:47;18.53;;;14.07;;
18322;SDS011;9287;49.456;11.064;2024-03-02T12:43:15;19.83;;;15.33;;
18322;SDS011;9287;49.456;11.064;2024-03-02T12:45:45;22.47;;;16.37;;
18322;SDS011;9287;49.456;11.064;2024-03-02T12:48:12;20.23;;;16.00;;
18322;SDS011;9287;49.456;11.064;2024-03-02T12:50:41;21.23;;;15.43;;
18322;SDS011;9287;49.456;11.064;2024-03-02T12:53:13;23.23;;;15.53;;
18322;SDS011;9287;49.456;11.064;2024-03-02T12:55:42;19.90;;;15.27;;
18322;SDS011;9287;49.456;11.064;2024-03-02T12:58:16;19.57;;;15.03;;
18322;SDS011;9287;49.456;11.064;2024-03-02T13:00:46;18.60;;;14.07;;
18322;SDS011;9287;49.456;11.064;2024-03-02T13:03:14;19.00;;;15.90;;
18322;SDS011;9287;49.456;11.064;2024-03-02T13:05:47;19.10;;;15.20;;
18322;SDS011;9287;49.456;11.064;2024-03-02T13:08:16;20.17;;;15.23;;
18322;SDS011;9287;49.456;11.064;2024-03-02T13:10:44;20.30;;;14.30;;
18322;SDS011;9287;49.456;11.064;2024-03-02T13:13:12;18.60;;;14.43;;
18322;SDS011;9287;49.456;11.064;2024-03-02T13:15:41;18.60;;;13.80;;
18322;SDS011;9287;49.456;11.064;2024-03-02T13:18:12;16.47;;;12.83;;
18322;SDS011;9287;49.456;11.064;2024-03-02T13:20:42;14.77;;;10.63;;
18322;SDS011;9287;49.456;11.064;2024-03-02T13:23:09;15.50;;;11.07;;
18322;SDS011;9287;49.456;11.064;2024-03-02T13:25:37;18.37;;;12.23;;
18322;SDS011;9287;49.456;11.064;2024-03-02T13:28:05;16.57;;;11.77;;
18322;SDS011;9287;49.456;11.064;2024-03-02T13:30:33;16.60;;;11.30;;
18322;SDS011;9287;49.456;11.064;2024-03-02T13:33:01;14.57;;;10.97;;
18322;SDS011;9287;49.456;11.064;2024-03-02T13:35:30;15.70;;;10.93;;
18322;SDS011;9287;49.456;11.064;2024-03-02T13:37:58;15.53;;;11.10;;
18322;SDS011;9287;49.456;11.064;2024-03-02T13:40:26;11.60;;;9.83;;
18322;SDS011;9287;49.456;11.064;2024-03-02T13:42:55;12.47;;;10.03;;
18322;SDS011;9287;49.456;11.064;2024-03-02T13:45:23;13.90;;;10.73;;
18322;SDS011;9287;49.456;11.064;2024-03-02T13:47:51;13.87;;;10.10;;
18322;SDS011;9287;49.456;11.064;2024-03-02T13:50:19;13.57;;;9.90;;
18322;SDS011;9287;49.456;11.064;2024-03-02T13:52:48;14.07;;;10.20;;
18322;SDS011;9287;49.456;11.064;2024-03-02T13:55:16;13.03;;;9.23;;
18322;SDS011;9287;49.456;11.064;2024-03-02T13:57:44;12.57;;;9.93;;
18322;SDS011;9287;49.456;11.064;2024-03-02T14:00:15;14.57;;;9.93;;
18322;SDS011;9287;49.456;11.064;2024-03-02T14:02:44;12.40;;;10.13;;
18322;SDS011;9287;49.456;11.064;2024-03-02T14:05:13;14.07;;;9.63;;
18322;SDS011;9287;49.456;11.064;2024-03-02T14:07:41;14.33;;;9.67;;
18322;SDS011;9287;49.456;11.064;2024-03-02T14:10:10;15.00;;;10.07;;
18322;SDS011;9287;49.456;11.064;2024-03-02T14:12:38;15.43;;;11.07;;
18322;SDS011;9287;49.456;11.064;2024-03-02T14:15:07;14.50;;;11.13;;
18322;SDS011;9287;49.456;11.064;2024-03-02T14:17:35;16.80;;;10.97;;
18322;SDS011;9287;49.456;11.064;2024-03-02T14:20:03;13.33;;;9.60;;
18322;SDS011;9287;49.456;11.064;2024-03-02T14:22:31;14.23;;;9.90;;
18322;SDS011;9287;49.456;11.064;2024-03-02T14:25:00;13.60;;;9.30;;
18322;SDS011;9287;49.456;11.064;2024-03-02T14:27:29;16.40;;;10.60;;
18322;SDS011;9287;49.456;11.064;2024-03-02T14:30:17;14.90;;;9.60;;
18322;SDS011;9287;49.456;11.064;2024-03-02T14:32:45;13.30;;;9.27;;
18322;SDS011;9287;49.456;11.064;2024-03-02T14:35:13;15.17;;;9.90;;
18322;SDS011;9287;49.456;11.064;2024-03-02T14:37:41;13.33;;;9.97;;